Terminal Aerodrome Forecast
Issued by NWS Sterling, VA

Current Version | Previous Version | Graphics & Text | Print | Product List | Glossary On
Versions: 1 2 3 4 5 6 7 8 9 10 11 12 13 14 15 16 17 18 19 20 21 22 23 24 25
000
FTUS41 KLWX 211740
TAFIAD
TAF
KIAD 211740Z 2118/2224 08008KT P6SM -RA SCT008 BKN020 OVC050
      TEMPO 2118/2120 5SM -RA BKN008 OVC050
     FM212000 VRB05KT P6SM -DZ BKN025 OVC050
     FM220100 33005KT P6SM BKN050
     FM220500 31007KT P6SM SCT080
     FM221400 30012G20KT P6SM FEW250
     FM221900 30014G23KT P6SM FEW060=

USA.gov is the U.S. government's official web portal to all federal, state and local government web resources and services.